createdAt,value
2022-10-08T00:01:23.025Z,75.70
2022-10-08T00:03:54.855Z,76.10
2022-10-08T00:06:23.667Z,76.50
2022-10-08T00:08:54.072Z,76.30
2022-10-08T00:11:27.651Z,76.00
2022-10-08T00:13:55.588Z,76.80
2022-10-08T00:16:26.367Z,75.90
2022-10-08T00:18:56.219Z,75.90
2022-10-08T00:21:29.811Z,76.00
2022-10-08T00:23:57.952Z,76.10
2022-10-08T00:26:27.190Z,76.10
2022-10-08T00:28:57.720Z,76.20
2022-10-08T00:31:28.325Z,76.00
2022-10-08T00:33:58.121Z,76.00
2022-10-08T00:36:28.492Z,76.00
2022-10-08T00:39:00.166Z,76.20
2022-10-08T00:41:30.799Z,76.30
2022-10-08T00:44:02.074Z,76.30
2022-10-08T00:46:34.715Z,76.20
2022-10-08T00:49:18.531Z,76.20
2022-10-08T00:51:55.524Z,76.20
2022-10-08T00:54:23.481Z,76.40
2022-10-08T00:56:53.447Z,76.60
2022-10-08T00:59:21.410Z,76.80
2022-10-08T01:01:49.048Z,76.90
2022-10-08T01:04:16.370Z,77.20
2022-10-08T01:06:50.643Z,77.30
2022-10-08T01:09:32.404Z,77.50
2022-10-08T01:12:32.699Z,77.60
2022-10-08T01:15:24.171Z,77.60
2022-10-08T01:18:23.291Z,77.70
2022-10-08T01:20:51.104Z,77.40
2022-10-08T01:23:21.768Z,77.10
2022-10-08T01:26:35.315Z,77.20
2022-10-08T01:29:16.260Z,77.40
2022-10-08T01:31:54.112Z,77.10
2022-10-08T01:34:36.955Z,77.30
2022-10-08T01:37:08.232Z,77.20
2022-10-08T01:39:38.669Z,77.20
2022-10-08T01:42:08.992Z,77.10
2022-10-08T01:44:42.691Z,77.30
2022-10-08T01:47:13.864Z,77.20
2022-10-08T01:49:58.220Z,77.20
2022-10-08T01:52:29.893Z,77.40
2022-10-08T01:55:04.541Z,77.20
2022-10-08T01:57:33.471Z,77.50
2022-10-08T02:00:07.713Z,77.50
2022-10-08T02:02:41.999Z,77.60
2022-10-08T02:05:11.580Z,77.60
2022-10-08T02:07:42.421Z,77.50
2022-10-08T02:10:19.060Z,77.50
2022-10-08T02:12:46.604Z,77.50
2022-10-08T02:15:27.675Z,77.40
2022-10-08T02:18:16.128Z,77.40
2022-10-08T02:20:53.970Z,77.30
2022-10-08T02:23:53.469Z,77.10
2022-10-08T02:26:29.756Z,77.10
2022-10-08T02:29:04.634Z,76.90
2022-10-08T02:32:02.977Z,77.10
2022-10-08T02:34:45.188Z,77.30
2022-10-08T02:37:17.635Z,77.10
2022-10-08T02:39:50.921Z,77.00
2022-10-08T02:42:22.251Z,77.10
2022-10-08T02:44:59.193Z,77.10
2022-10-08T02:47:30.879Z,77.20
2022-10-08T02:50:03.101Z,76.90
2022-10-08T02:52:36.900Z,76.90
2022-10-08T02:55:30.282Z,76.80
2022-10-08T02:58:02.339Z,76.80
2022-10-08T03:00:35.257Z,76.70
2022-10-08T03:03:15.491Z,76.70
2022-10-08T03:05:44.344Z,76.80
2022-10-08T03:08:14.843Z,76.60
2022-10-08T03:10:44.184Z,76.60
2022-10-08T03:13:12.810Z,76.70
2022-10-08T03:15:41.395Z,76.70
2022-10-08T03:18:12.196Z,76.80
2022-10-08T03:20:46.312Z,76.90
2022-10-08T03:23:16.928Z,77.00
2022-10-08T03:25:45.020Z,76.90
2022-10-08T03:28:12.438Z,76.90
2022-10-08T03:30:41.051Z,76.90
2022-10-08T03:33:08.338Z,76.80
2022-10-08T03:35:35.825Z,76.70
2022-10-08T03:38:03.315Z,76.80
2022-10-08T03:40:30.853Z,76.70
2022-10-08T03:42:58.143Z,76.60
2022-10-08T03:45:25.411Z,76.60
2022-10-08T03:47:52.749Z,76.60
2022-10-08T03:50:21.292Z,76.70
2022-10-08T03:52:49.037Z,76.80
2022-10-08T03:55:17.224Z,76.80
2022-10-08T03:57:44.787Z,77.60
2022-10-08T04:00:12.542Z,76.90
2022-10-08T04:02:40.157Z,77.00
2022-10-08T04:05:07.843Z,77.00
2022-10-08T04:07:35.044Z,77.00
2022-10-08T04:10:02.882Z,77.10
2022-10-08T04:12:30.356Z,77.20
2022-10-08T04:14:57.602Z,77.20
2022-10-08T04:17:24.816Z,77.30
2022-10-08T04:19:52.796Z,77.20
2022-10-08T04:22:20.011Z,77.20
2022-10-08T04:24:47.201Z,77.20
2022-10-08T04:27:14.441Z,77.30
2022-10-08T04:29:41.759Z,77.20
2022-10-08T04:32:08.996Z,77.40
2022-10-08T04:34:36.168Z,77.40
2022-10-08T04:37:03.380Z,77.50
2022-10-08T04:39:30.576Z,77.50
2022-10-08T04:41:58.120Z,77.50
2022-10-08T04:44:25.326Z,77.50
2022-10-08T04:46:52.797Z,78.30
2022-10-08T04:49:20.011Z,77.50
2022-10-08T04:51:47.201Z,77.60
2022-10-08T04:54:14.418Z,77.60
2022-10-08T04:56:41.622Z,77.60
2022-10-08T04:59:08.787Z,77.50
2022-10-08T05:01:36.086Z,77.60
2022-10-08T05:04:03.462Z,77.50
2022-10-08T05:06:32.004Z,77.40
2022-10-08T05:09:04.486Z,77.50
2022-10-08T05:11:32.907Z,77.50
2022-10-08T05:14:00.162Z,77.50
2022-10-08T05:16:27.905Z,77.50
2022-10-08T05:18:56.072Z,77.50
2022-10-08T05:21:28.844Z,77.50
2022-10-08T05:24:02.441Z,77.50
2022-10-08T05:26:57.384Z,77.50
2022-10-08T05:29:25.263Z,77.50
2022-10-08T05:31:52.460Z,77.50
2022-10-08T05:34:19.975Z,77.50
2022-10-08T05:36:47.636Z,77.50
2022-10-08T05:39:15.123Z,77.60
2022-10-08T05:41:43.384Z,77.60
2022-10-08T05:44:11.589Z,77.60
2022-10-08T05:46:39.958Z,77.50
2022-10-08T05:49:08.768Z,77.50
2022-10-08T05:51:38.328Z,77.50
2022-10-08T05:54:05.713Z,77.50
2022-10-08T05:56:33.124Z,77.50
2022-10-08T05:59:00.720Z,77.40
2022-10-08T06:01:31.435Z,77.30
2022-10-08T06:04:08.903Z,77.30
2022-10-08T06:06:38.223Z,77.40
2022-10-08T06:09:07.129Z,77.40
2022-10-08T06:11:36.722Z,77.60
2022-10-08T06:14:06.032Z,77.70
2022-10-08T06:16:34.579Z,77.60
2022-10-08T06:19:03.125Z,77.40
2022-10-08T06:21:31.328Z,77.50
2022-10-08T06:24:00.710Z,77.50
2022-10-08T06:26:36.037Z,77.50
2022-10-08T06:29:08.533Z,77.40
2022-10-08T06:31:36.606Z,77.50
2022-10-08T06:34:04.924Z,77.40
2022-10-08T06:36:33.643Z,77.60
2022-10-08T06:39:06.919Z,77.60
2022-10-08T06:41:35.023Z,77.60
2022-10-08T06:44:05.137Z,77.50
2022-10-08T06:46:33.352Z,77.60
2022-10-08T06:49:01.806Z,77.50
2022-10-08T06:51:30.211Z,77.60
2022-10-08T06:54:04.404Z,77.60
2022-10-08T06:56:35.963Z,77.70
2022-10-08T06:59:04.964Z,77.50
2022-10-08T07:01:34.469Z,77.30
2022-10-08T07:04:03.221Z,77.00
2022-10-08T07:06:30.945Z,76.70
2022-10-08T07:09:00.696Z,76.30
2022-10-08T07:11:29.065Z,75.90
2022-10-08T07:13:57.474Z,76.50
2022-10-08T07:16:26.983Z,75.70
2022-10-08T07:18:57.066Z,75.70
2022-10-08T07:21:25.324Z,75.70
2022-10-08T07:23:53.008Z,75.80
2022-10-08T07:26:26.467Z,76.00
2022-10-08T07:28:56.976Z,76.10
2022-10-08T07:31:28.294Z,76.00
2022-10-08T07:33:57.200Z,76.00
2022-10-08T07:36:25.686Z,75.90
2022-10-08T07:38:58.650Z,75.90
2022-10-08T07:41:27.396Z,76.00
2022-10-08T07:43:58.371Z,76.10
2022-10-08T07:46:30.250Z,76.30
2022-10-08T07:49:01.587Z,76.00
2022-10-08T07:51:31.417Z,75.40
2022-10-08T07:54:02.579Z,74.60
2022-10-08T07:56:31.744Z,74.30
2022-10-08T07:59:00.711Z,73.90
2022-10-08T08:01:30.051Z,74.10
2022-10-08T08:04:00.918Z,74.10
2022-10-08T08:06:29.309Z,73.00
2022-10-08T08:08:57.032Z,72.30
2022-10-08T08:11:25.322Z,70.60
2022-10-08T08:13:52.963Z,69.60
2022-10-08T08:16:25.210Z,68.80
2022-10-08T08:18:55.027Z,68.30
2022-10-08T08:21:28.384Z,68.10
2022-10-08T08:23:58.252Z,67.90
2022-10-08T08:26:28.143Z,67.10
2022-10-08T08:29:00.501Z,67.10
2022-10-08T08:31:36.578Z,67.30
2022-10-08T08:34:08.480Z,67.50
2022-10-08T08:36:41.286Z,68.00
2022-10-08T08:39:14.377Z,68.80
2022-10-08T08:41:56.850Z,68.10
2022-10-08T08:44:39.797Z,68.50
2022-10-08T08:47:13.986Z,68.80
2022-10-08T08:49:45.223Z,68.80
2022-10-08T08:52:16.267Z,69.40
2022-10-08T08:54:46.876Z,69.70
2022-10-08T08:57:37.043Z,70.00
2022-10-08T09:00:12.688Z,70.00
2022-10-08T09:02:55.378Z,70.00
2022-10-08T09:05:25.278Z,69.00
2022-10-08T09:08:11.192Z,69.10
2022-10-08T09:10:59.752Z,67.90
2022-10-08T09:13:48.875Z,67.70
2022-10-08T09:16:17.460Z,66.80
2022-10-08T09:18:48.014Z,66.60
2022-10-08T09:21:16.273Z,65.60
2022-10-08T09:23:44.163Z,65.80
2022-10-08T09:26:19.709Z,65.50
2022-10-08T09:28:50.191Z,64.40
2022-10-08T09:31:46.572Z,63.80
2022-10-08T09:34:18.539Z,62.40
2022-10-08T09:37:02.712Z,62.10
2022-10-08T09:39:33.079Z,61.30
2022-10-08T09:42:06.663Z,60.60
2022-10-08T09:44:58.987Z,60.50
2022-10-08T09:47:27.585Z,60.30
2022-10-08T09:50:06.897Z,60.50
2022-10-08T09:52:36.152Z,59.90
2022-10-08T09:55:22.771Z,60.70
2022-10-08T09:57:54.771Z,59.50
2022-10-08T10:00:31.785Z,58.80
2022-10-08T10:03:00.303Z,58.30
2022-10-08T10:05:30.998Z,57.80
2022-10-08T10:07:58.513Z,57.20
2022-10-08T10:10:33.298Z,57.40
2022-10-08T10:13:12.021Z,55.80
2022-10-08T10:15:44.803Z,55.60
2022-10-08T10:18:18.184Z,56.20
2022-10-08T10:20:59.512Z,56.20
2022-10-08T10:23:36.868Z,55.50
2022-10-08T10:26:21.819Z,54.90
2022-10-08T10:28:59.563Z,55.40
2022-10-08T10:31:34.867Z,55.60
2022-10-08T10:34:10.808Z,56.00
2022-10-08T10:36:48.996Z,56.20
2022-10-08T10:39:36.608Z,55.70
2022-10-08T10:42:23.395Z,55.50
2022-10-08T10:45:01.954Z,55.00
2022-10-08T10:47:32.371Z,54.50
2022-10-08T10:50:02.845Z,55.70
2022-10-08T10:53:07.967Z,54.00
2022-10-08T10:55:54.789Z,53.70
2022-10-08T10:58:28.909Z,53.90
2022-10-08T11:01:14.375Z,54.40
2022-10-08T11:03:58.176Z,54.50
2022-10-08T11:06:41.188Z,54.20
2022-10-08T11:09:41.043Z,53.40
2022-10-08T11:12:30.967Z,53.80
2022-10-08T11:15:22.391Z,53.90
2022-10-08T11:18:26.001Z,53.50
2022-10-08T11:21:03.043Z,53.30
2022-10-08T11:23:36.596Z,51.30
2022-10-08T11:26:32.168Z,50.60
2022-10-08T11:29:16.020Z,50.20
2022-10-08T11:31:49.044Z,49.70
2022-10-08T11:34:34.268Z,49.10
2022-10-08T11:37:27.896Z,49.60
2022-10-08T11:40:19.367Z,49.80
2022-10-08T11:43:29.910Z,50.40
2022-10-08T11:46:28.621Z,49.70
2022-10-08T11:49:01.791Z,49.50
2022-10-08T11:51:31.903Z,49.40
2022-10-08T11:54:18.117Z,49.90
2022-10-08T11:56:47.136Z,50.50
2022-10-08T11:59:37.819Z,50.00
2022-10-08T12:02:23.331Z,49.80
2022-10-08T12:04:53.462Z,50.00
2022-10-08T12:07:35.043Z,50.10
2022-10-08T12:10:05.318Z,50.20
2022-10-08T12:12:50.935Z,50.70
2022-10-08T12:15:40.395Z,50.30
2022-10-08T12:18:10.534Z,50.70
2022-10-08T12:20:40.982Z,49.90
2022-10-08T12:23:35.455Z,50.30
2022-10-08T12:26:03.172Z,49.90
2022-10-08T12:28:35.622Z,50.00
2022-10-08T12:31:29.558Z,50.20
2022-10-08T12:34:23.357Z,50.70
2022-10-08T12:37:16.697Z,50.80
2022-10-08T12:39:45.571Z,50.90
2022-10-08T12:42:36.351Z,50.50
2022-10-08T12:45:26.175Z,50.40
2022-10-08T12:48:01.239Z,50.90
2022-10-08T12:50:46.687Z,50.50
2022-10-08T12:53:16.423Z,50.80
2022-10-08T12:55:50.162Z,50.60
2022-10-08T12:58:21.804Z,50.00
2022-10-08T13:01:00.101Z,50.10
2022-10-08T13:03:28.251Z,50.20
2022-10-08T13:05:56.622Z,49.90
2022-10-08T13:08:35.909Z,50.10
2022-10-08T13:11:08.112Z,50.50
2022-10-08T13:13:38.475Z,50.70
2022-10-08T13:16:15.819Z,50.50
2022-10-08T13:18:50.312Z,50.60
2022-10-08T13:21:36.556Z,50.70
2022-10-08T13:24:25.401Z,51.10
2022-10-08T13:26:55.828Z,51.40
2022-10-08T13:29:30.878Z,51.30
2022-10-08T13:32:17.012Z,51.00
2022-10-08T13:34:47.737Z,51.10
2022-10-08T13:37:21.082Z,50.80
2022-10-08T13:39:57.276Z,50.70
2022-10-08T13:42:36.551Z,50.90
2022-10-08T13:45:14.537Z,50.90
2022-10-08T13:47:41.889Z,51.40
2022-10-08T13:50:10.271Z,51.70
2022-10-08T13:52:41.980Z,51.80
2022-10-08T13:55:32.643Z,51.90
2022-10-08T13:58:02.383Z,52.10
2022-10-08T14:00:32.679Z,52.30
2022-10-08T14:03:00.288Z,52.40
2022-10-08T14:05:30.058Z,52.50
2022-10-08T14:08:01.971Z,52.70
2022-10-08T14:10:29.844Z,52.30
2022-10-08T14:12:57.465Z,52.40
2022-10-08T14:15:24.800Z,52.70
2022-10-08T14:17:53.332Z,53.00
2022-10-08T14:20:22.037Z,53.10
2022-10-08T14:22:50.580Z,53.10
2022-10-08T14:25:21.189Z,53.10
2022-10-08T14:27:49.622Z,52.90
2022-10-08T14:30:17.679Z,52.70
2022-10-08T14:32:45.340Z,52.90
2022-10-08T14:35:13.537Z,53.10
2022-10-08T14:37:41.071Z,53.20
2022-10-08T14:40:11.892Z,53.10
2022-10-08T14:42:39.339Z,53.20
2022-10-08T14:45:07.251Z,54.00
2022-10-08T14:47:34.837Z,52.70
2022-10-08T14:50:03.445Z,53.00
2022-10-08T14:52:30.840Z,53.30
2022-10-08T14:54:58.203Z,53.40
2022-10-08T14:57:25.816Z,53.30
2022-10-08T14:59:53.202Z,53.60
2022-10-08T15:02:20.513Z,53.50
2022-10-08T15:04:47.852Z,53.30
2022-10-08T15:07:15.193Z,53.30
2022-10-08T15:09:43.253Z,53.30
2022-10-08T15:12:10.666Z,53.50
2022-10-08T15:14:38.627Z,53.60
2022-10-08T15:17:06.424Z,53.90
2022-10-08T15:19:33.863Z,54.00
2022-10-08T15:22:01.540Z,54.40
2022-10-08T15:24:29.116Z,54.70
2022-10-08T15:26:56.716Z,55.20
2022-10-08T15:29:24.044Z,55.90
2022-10-08T15:31:52.056Z,56.30
2022-10-08T15:34:20.888Z,56.30
2022-10-08T15:36:48.283Z,56.60
2022-10-08T15:39:20.323Z,57.10
2022-10-08T15:41:49.633Z,57.40
2022-10-08T15:44:21.663Z,57.60
2022-10-08T15:46:59.543Z,57.50
2022-10-08T15:49:31.893Z,57.70
2022-10-08T15:52:00.174Z,58.20
2022-10-08T15:54:27.787Z,58.20
2022-10-08T15:56:55.273Z,58.20
2022-10-08T15:59:22.678Z,58.60
2022-10-08T16:01:50.192Z,58.90
2022-10-08T16:04:17.388Z,59.10
2022-10-08T16:06:45.460Z,59.20
2022-10-08T16:09:14.947Z,59.30
2022-10-08T16:11:42.789Z,59.80
2022-10-08T16:14:13.390Z,60.00
2022-10-08T16:16:41.235Z,59.90
2022-10-08T16:19:18.093Z,60.30
2022-10-08T16:21:47.547Z,60.40
2022-10-08T16:24:15.082Z,60.70
2022-10-08T16:26:43.605Z,60.80
2022-10-08T16:29:13.028Z,61.10
2022-10-08T16:31:42.063Z,61.50
2022-10-08T16:34:18.605Z,61.90
2022-10-08T16:36:48.153Z,62.30
2022-10-08T16:39:18.389Z,62.80
2022-10-08T16:41:47.178Z,63.40
2022-10-08T16:44:18.344Z,63.20
2022-10-08T16:46:50.071Z,63.10
2022-10-08T16:49:24.741Z,63.00
2022-10-08T16:51:55.933Z,63.10
2022-10-08T16:54:23.856Z,63.00
2022-10-08T16:56:51.277Z,63.60
2022-10-08T16:59:21.624Z,63.80
2022-10-08T17:01:52.325Z,64.10
2022-10-08T17:04:20.904Z,64.10
2022-10-08T17:06:48.623Z,64.00
2022-10-08T17:09:16.503Z,64.00
2022-10-08T17:11:44.317Z,64.20
2022-10-08T17:14:12.575Z,64.80
2022-10-08T17:16:43.051Z,64.80
2022-10-08T17:19:11.556Z,64.90
2022-10-08T17:21:39.106Z,64.60
2022-10-08T17:24:07.290Z,64.80
2022-10-08T17:26:35.033Z,65.10
2022-10-08T17:29:07.170Z,65.40
2022-10-08T17:31:34.684Z,66.20
2022-10-08T17:34:03.932Z,66.00
2022-10-08T17:36:34.876Z,66.10
2022-10-08T17:39:05.771Z,66.20
2022-10-08T17:41:38.177Z,66.10
2022-10-08T17:44:07.863Z,66.30
2022-10-08T17:46:42.701Z,66.30
2022-10-08T17:49:10.427Z,66.60
2022-10-08T17:51:38.295Z,66.80
2022-10-08T17:54:08.408Z,66.90
2022-10-08T17:56:35.857Z,66.90
2022-10-08T17:59:04.215Z,67.50
2022-10-08T18:01:34.697Z,67.40
2022-10-08T18:04:04.658Z,67.50
2022-10-08T18:06:33.904Z,67.70
2022-10-08T18:09:04.123Z,68.00
2022-10-08T18:11:35.102Z,68.10
2022-10-08T18:14:04.192Z,68.70
2022-10-08T18:16:31.829Z,68.40
2022-10-08T18:19:02.718Z,68.30
2022-10-08T18:21:32.874Z,68.20
2022-10-08T18:24:00.247Z,68.20
2022-10-08T18:26:34.700Z,68.20
2022-10-08T18:29:05.794Z,68.50
2022-10-08T18:31:33.889Z,68.60
2022-10-08T18:34:04.184Z,69.00
2022-10-08T18:36:34.391Z,69.10
2022-10-08T18:39:07.282Z,69.00
2022-10-08T18:41:38.239Z,68.80
2022-10-08T18:44:06.860Z,68.90
2022-10-08T18:46:36.390Z,68.80
2022-10-08T18:49:05.671Z,68.90
2022-10-08T18:51:34.187Z,69.00
2022-10-08T18:54:02.098Z,69.10
2022-10-08T18:56:34.219Z,69.20
2022-10-08T18:59:04.216Z,69.20
2022-10-08T19:01:34.773Z,69.00
2022-10-08T19:04:05.128Z,69.30
2022-10-08T19:06:36.443Z,69.40
2022-10-08T19:09:05.488Z,69.50
2022-10-08T19:11:41.863Z,69.30
2022-10-08T19:14:12.803Z,69.40
2022-10-08T19:16:40.900Z,69.40
2022-10-08T19:19:23.738Z,69.60
2022-10-08T19:21:52.875Z,69.90
2022-10-08T19:24:23.845Z,69.80
2022-10-08T19:26:52.032Z,70.10
2022-10-08T19:29:22.892Z,70.00
2022-10-08T19:31:51.184Z,70.00
2022-10-08T19:34:24.574Z,70.60
2022-10-08T19:36:52.181Z,69.70
2022-10-08T19:39:25.562Z,69.60
2022-10-08T19:41:52.956Z,69.70
2022-10-08T19:44:20.941Z,69.90
2022-10-08T19:46:49.002Z,70.10
2022-10-08T19:49:16.983Z,70.20
2022-10-08T19:51:44.844Z,70.20
2022-10-08T19:54:13.093Z,70.30
2022-10-08T19:56:40.660Z,70.20
2022-10-08T19:59:10.121Z,70.40
2022-10-08T20:01:39.249Z,70.50
2022-10-08T20:04:08.659Z,70.80
2022-10-08T20:06:39.360Z,71.50
2022-10-08T20:09:10.696Z,71.40
2022-10-08T20:11:38.854Z,71.40
2022-10-08T20:14:06.971Z,71.50
2022-10-08T20:16:37.761Z,71.30
2022-10-08T20:19:08.607Z,71.30
2022-10-08T20:21:37.311Z,71.20
2022-10-08T20:24:06.160Z,70.90
2022-10-08T20:26:36.296Z,70.90
2022-10-08T20:29:09.656Z,70.80
2022-10-08T20:31:46.210Z,70.80
2022-10-08T20:34:19.431Z,70.70
2022-10-08T20:36:48.221Z,70.50
2022-10-08T20:39:17.580Z,70.80
2022-10-08T20:41:45.366Z,71.00
2022-10-08T20:44:13.254Z,71.20
2022-10-08T20:46:40.913Z,70.80
2022-10-08T20:49:12.014Z,70.80
2022-10-08T20:51:41.337Z,70.70
2022-10-08T20:54:11.112Z,70.60
2022-10-08T20:56:40.446Z,70.60
2022-10-08T20:59:16.670Z,70.60
2022-10-08T21:01:44.770Z,70.90
2022-10-08T21:04:12.480Z,70.80
2022-10-08T21:06:45.357Z,70.80
2022-10-08T21:09:14.936Z,70.90
2022-10-08T21:11:42.659Z,70.80
2022-10-08T21:14:10.354Z,70.80
2022-10-08T21:16:39.698Z,70.90
2022-10-08T21:19:11.911Z,71.10
2022-10-08T21:21:39.696Z,71.20
2022-10-08T21:24:07.941Z,71.10
2022-10-08T21:26:38.367Z,71.20
2022-10-08T21:29:08.072Z,71.30
2022-10-08T21:31:37.404Z,71.20
2022-10-08T21:34:05.242Z,71.30
2022-10-08T21:36:36.519Z,71.40
2022-10-08T21:39:06.557Z,71.60
2022-10-08T21:41:36.600Z,71.50
2022-10-08T21:44:06.664Z,71.40
2022-10-08T21:46:40.409Z,71.80
2022-10-08T21:49:15.354Z,71.80
2022-10-08T21:51:43.045Z,71.60
2022-10-08T21:54:11.843Z,71.50
2022-10-08T21:56:41.174Z,71.70
2022-10-08T21:59:12.129Z,71.80
2022-10-08T22:01:48.282Z,71.80
2022-10-08T22:04:20.506Z,71.90
2022-10-08T22:06:53.302Z,71.70
2022-10-08T22:09:29.563Z,71.90
2022-10-08T22:11:58.229Z,72.00
2022-10-08T22:14:26.479Z,71.90
2022-10-08T22:16:54.294Z,71.80
2022-10-08T22:19:21.866Z,71.90
2022-10-08T22:21:49.287Z,71.80
2022-10-08T22:24:16.804Z,71.70
2022-10-08T22:26:47.409Z,71.90
2022-10-08T22:29:15.210Z,71.80
2022-10-08T22:31:43.006Z,71.70
2022-10-08T22:34:11.002Z,71.70
2022-10-08T22:36:43.666Z,71.80
2022-10-08T22:39:11.796Z,71.80
2022-10-08T22:41:39.503Z,72.20
2022-10-08T22:44:07.050Z,72.10
2022-10-08T22:46:37.251Z,72.00
2022-10-08T22:49:08.145Z,72.00
2022-10-08T22:51:36.330Z,72.00
2022-10-08T22:54:04.005Z,71.90
2022-10-08T22:56:32.061Z,71.90
2022-10-08T22:58:59.730Z,72.20
2022-10-08T23:01:28.733Z,72.10
2022-10-08T23:03:56.666Z,72.10
2022-10-08T23:06:27.006Z,72.00
2022-10-08T23:09:00.129Z,71.90
2022-10-08T23:11:29.278Z,71.90
2022-10-08T23:13:58.691Z,72.00
2022-10-08T23:16:27.919Z,72.10
2022-10-08T23:19:01.583Z,72.20
2022-10-08T23:21:29.318Z,72.30
2022-10-08T23:23:57.172Z,72.30
2022-10-08T23:26:25.352Z,72.10
2022-10-08T23:28:57.774Z,72.10
2022-10-08T23:31:28.712Z,72.10
2022-10-08T23:33:56.938Z,72.50
2022-10-08T23:36:32.983Z,72.90
2022-10-08T23:39:00.569Z,73.10
2022-10-08T23:41:28.056Z,72.70
2022-10-08T23:43:57.388Z,72.60
2022-10-08T23:46:27.674Z,72.50
2022-10-08T23:48:55.623Z,72.70
2022-10-08T23:51:24.140Z,72.70
2022-10-08T23:53:52.396Z,72.70
2022-10-08T23:56:21.168Z,72.30
2022-10-08T23:58:49.088Z,72.20
